createdAt,value
2018-06-29T00:00:10.327Z,4.30
2018-06-29T00:05:53.505Z,4.10
2018-06-29T00:08:38.682Z,4.30
2018-06-29T00:11:21.901Z,4.33
2018-06-29T00:14:11.679Z,3.50
2018-06-29T00:16:59.543Z,5.20
2018-06-29T00:19:45.440Z,4.07
2018-06-29T00:22:32.231Z,3.93
2018-06-29T00:25:21.594Z,4.40
2018-06-29T00:28:05.210Z,4.00
2018-06-29T00:30:52.607Z,5.17
2018-06-29T00:33:38.468Z,4.63
2018-06-29T00:36:18.776Z,4.40
2018-06-29T00:39:04.622Z,4.27
2018-06-29T00:41:54.089Z,5.00
2018-06-29T00:44:41.365Z,4.07
2018-06-29T00:47:31.224Z,4.93
2018-06-29T00:50:09.663Z,5.80
2018-06-29T00:52:57.472Z,5.70
2018-06-29T00:55:41.922Z,5.17
2018-06-29T00:58:28.802Z,4.43
2018-06-29T01:01:11.830Z,5.40
2018-06-29T01:04:01.527Z,6.17
2018-06-29T01:06:47.406Z,4.60
2018-06-29T01:09:37.951Z,5.67
2018-06-29T01:12:22.538Z,4.20
2018-06-29T01:15:12.240Z,4.37
2018-06-29T01:17:57.583Z,4.87
2018-06-29T01:20:48.928Z,5.00
2018-06-29T01:23:35.068Z,4.77
2018-06-29T01:26:27.292Z,4.63
2018-06-29T01:29:17.060Z,4.90
2018-06-29T01:32:05.806Z,4.83
2018-06-29T01:34:51.854Z,4.87
2018-06-29T01:37:34.832Z,4.90
2018-06-29T01:40:31.113Z,5.60
2018-06-29T01:43:21.064Z,5.87
2018-06-29T01:46:09.816Z,6.27
2018-06-29T01:49:00.766Z,6.83
2018-06-29T01:51:49.530Z,6.50
2018-06-29T01:54:40.026Z,6.90
2018-06-29T01:57:27.309Z,6.53
2018-06-29T02:00:15.436Z,7.03
2018-06-29T02:03:06.015Z,6.87
2018-06-29T02:05:54.093Z,9.20
2018-06-29T02:08:41.103Z,8.90
2018-06-29T02:11:32.675Z,9.03
2018-06-29T02:14:22.090Z,8.07
2018-06-29T02:17:13.151Z,7.67
2018-06-29T02:20:01.159Z,7.80
2018-06-29T02:22:50.207Z,8.97
2018-06-29T02:25:38.848Z,10.37
2018-06-29T02:28:25.138Z,9.70
2018-06-29T02:31:14.882Z,10.37
2018-06-29T02:33:56.203Z,9.53
2018-06-29T02:36:35.771Z,9.37
2018-06-29T02:39:25.566Z,10.20
2018-06-29T02:42:10.693Z,9.10
2018-06-29T02:44:56.534Z,11.13
2018-06-29T02:47:42.819Z,10.50
2018-06-29T02:50:26.998Z,10.53
2018-06-29T02:53:16.779Z,11.90
2018-06-29T02:56:06.041Z,11.00
2018-06-29T03:01:43.094Z,13.20
2018-06-29T03:04:31.117Z,11.73
2018-06-29T03:07:19.213Z,12.07
2018-06-29T03:13:00.566Z,13.77
2018-06-29T03:15:53.087Z,13.63
2018-06-29T03:18:45.422Z,13.43
2018-06-29T03:21:33.187Z,11.93
2018-06-29T03:24:21.116Z,15.77
2018-06-29T03:27:13.053Z,12.70
2018-06-29T03:30:02.259Z,14.70
2018-06-29T03:32:52.440Z,13.93
2018-06-29T03:35:37.965Z,15.10
2018-06-29T03:38:32.575Z,13.17
2018-06-29T03:41:22.321Z,15.00
2018-06-29T03:44:11.103Z,15.53
2018-06-29T03:47:01.650Z,16.73
2018-06-29T03:49:50.300Z,15.73
2018-06-29T03:52:42.668Z,16.87
2018-06-29T03:58:20.098Z,15.73
2018-06-29T04:01:02.697Z,16.53
2018-06-29T04:03:47.305Z,16.07
2018-06-29T04:06:35.758Z,16.53
2018-06-29T04:09:26.206Z,19.37
2018-06-29T04:12:12.256Z,15.63
2018-06-29T04:15:01.114Z,16.67
2018-06-29T04:17:49.600Z,19.13
2018-06-29T04:20:38.364Z,17.60
2018-06-29T04:23:30.256Z,17.87
2018-06-29T04:26:22.644Z,15.27
2018-06-29T04:29:14.715Z,14.03
2018-06-29T04:32:02.998Z,15.23
2018-06-29T04:34:54.370Z,16.03
2018-06-29T04:37:50.298Z,13.93
2018-06-29T04:40:38.739Z,15.40
2018-06-29T04:43:22.189Z,14.87
2018-06-29T04:46:05.625Z,14.83
2018-06-29T04:48:51.987Z,13.00
2018-06-29T04:51:41.995Z,15.83
2018-06-29T04:54:29.873Z,13.73
2018-06-29T04:57:13.888Z,16.03
2018-06-29T05:00:00.384Z,15.57
2018-06-29T05:05:45.789Z,15.20
2018-06-29T05:08:28.828Z,12.53
2018-06-29T05:11:17.247Z,16.40
2018-06-29T05:17:03.479Z,20.03
2018-06-29T05:22:49.515Z,17.07
2018-06-29T05:25:43.273Z,12.87
2018-06-29T05:28:31.148Z,14.53
2018-06-29T05:31:19.765Z,14.10
2018-06-29T05:34:07.719Z,14.30
2018-06-29T05:36:57.463Z,15.77
2018-06-29T05:39:49.546Z,15.10
2018-06-29T05:42:30.547Z,18.43
2018-06-29T05:45:16.457Z,18.57
2018-06-29T05:48:05.971Z,19.83
2018-06-29T05:50:54.917Z,18.93
2018-06-29T05:53:36.543Z,15.23
2018-06-29T05:56:23.824Z,19.27
2018-06-29T05:59:06.302Z,19.23
2018-06-29T06:01:47.198Z,14.10
2018-06-29T06:04:31.779Z,22.27
2018-06-29T06:07:02.091Z,18.07
2018-06-29T06:09:49.051Z,19.97
2018-06-29T06:12:39.944Z,17.10
2018-06-29T06:15:28.008Z,18.20
2018-06-29T06:18:15.095Z,14.23
2018-06-29T06:21:05.984Z,15.40
2018-06-29T06:23:56.677Z,14.80
2018-06-29T06:26:51.054Z,14.80
2018-06-29T06:29:39.556Z,11.83
2018-06-29T06:32:28.112Z,12.93
2018-06-29T06:35:18.805Z,16.30
2018-06-29T06:38:04.269Z,14.83
2018-06-29T06:40:52.902Z,12.97
2018-06-29T06:43:40.154Z,17.40
2018-06-29T06:46:27.699Z,14.93
2018-06-29T06:49:11.983Z,14.17
2018-06-29T06:52:02.177Z,13.97
2018-06-29T06:54:55.001Z,14.77
2018-06-29T06:57:41.122Z,10.87
2018-06-29T07:00:23.039Z,14.60
2018-06-29T07:03:07.377Z,11.93
2018-06-29T07:06:00.852Z,10.80
2018-06-29T07:08:48.557Z,10.63
2018-06-29T07:11:39.004Z,12.80
2018-06-29T07:14:25.698Z,11.60
2018-06-29T07:17:02.946Z,16.87
2018-06-29T07:19:39.979Z,11.03
2018-06-29T07:22:14.842Z,11.50
2018-06-29T07:24:55.517Z,10.30
2018-06-29T07:27:39.018Z,10.77
2018-06-29T07:30:14.828Z,16.73
2018-06-29T07:32:59.066Z,12.17
2018-06-29T07:35:42.204Z,10.17
2018-06-29T07:38:20.194Z,11.73
2018-06-29T07:40:59.777Z,10.87
2018-06-29T07:43:45.044Z,13.43
2018-06-29T07:46:29.862Z,13.80
2018-06-29T07:49:08.469Z,8.73
2018-06-29T07:51:44.975Z,9.73
2018-06-29T07:54:30.168Z,8.93
2018-06-29T07:57:11.119Z,8.10
2018-06-29T07:59:48.089Z,9.57
2018-06-29T08:02:21.515Z,15.67
2018-06-29T08:04:53.052Z,7.80
2018-06-29T08:07:27.844Z,7.63
2018-06-29T08:09:58.691Z,8.50
2018-06-29T08:12:30.001Z,13.33
2018-06-29T08:15:03.961Z,6.77
2018-06-29T08:17:42.517Z,6.10
2018-06-29T08:20:17.645Z,6.33
2018-06-29T08:22:57.866Z,5.40
2018-06-29T08:25:38.469Z,13.07
2018-06-29T08:28:16.223Z,6.90
2018-06-29T08:30:50.389Z,5.63
2018-06-29T08:33:24.485Z,9.53
2018-06-29T08:35:59.325Z,7.03
2018-06-29T08:38:39.426Z,8.80
2018-06-29T08:41:12.451Z,6.90
2018-06-29T08:43:50.788Z,12.60
2018-06-29T08:46:27.682Z,5.37
2018-06-29T08:49:02.766Z,8.03
2018-06-29T08:51:45.840Z,8.07
2018-06-29T08:54:23.650Z,6.53
2018-06-29T08:57:02.856Z,7.57
2018-06-29T08:59:43.117Z,12.37
2018-06-29T09:02:19.395Z,9.33
2018-06-29T09:04:55.539Z,7.93
2018-06-29T09:07:40.877Z,9.07
2018-06-29T09:10:19.435Z,7.30
2018-06-29T09:12:58.545Z,9.67
2018-06-29T09:15:37.722Z,8.77
2018-06-29T09:18:10.358Z,9.23
2018-06-29T09:20:47.947Z,9.93
2018-06-29T09:23:26.536Z,7.43
2018-06-29T09:26:07.716Z,8.93
2018-06-29T09:28:45.635Z,10.20
2018-06-29T09:31:22.273Z,12.23
2018-06-29T09:34:01.940Z,11.87
2018-06-29T09:36:44.238Z,10.03
2018-06-29T09:39:19.996Z,10.07
2018-06-29T09:42:03.799Z,7.23
2018-06-29T09:44:45.285Z,7.33
2018-06-29T09:47:19.904Z,6.37
2018-06-29T09:50:07.255Z,8.17
2018-06-29T09:52:44.721Z,6.77
2018-06-29T09:55:26.859Z,8.37
2018-06-29T09:58:08.849Z,9.30
2018-06-29T10:00:55.408Z,8.53
2018-06-29T10:03:34.607Z,6.50
2018-06-29T10:06:16.312Z,8.37
2018-06-29T10:11:39.058Z,12.23
2018-06-29T10:14:21.313Z,12.27
2018-06-29T10:17:01.299Z,10.80
2018-06-29T10:19:38.836Z,6.93
2018-06-29T10:22:21.219Z,9.53
2018-06-29T10:25:03.252Z,10.20
2018-06-29T10:27:41.685Z,10.77
2018-06-29T10:30:26.827Z,11.27
2018-06-29T10:33:09.810Z,9.37
2018-06-29T10:35:50.821Z,7.93
2018-06-29T10:38:35.555Z,6.10
2018-06-29T10:41:19.969Z,10.30
2018-06-29T10:44:02.734Z,9.60
2018-06-29T10:46:44.203Z,8.30
2018-06-29T10:49:29.596Z,5.27
2018-06-29T10:52:13.255Z,7.13
2018-06-29T10:54:48.754Z,3.80
2018-06-29T10:57:32.854Z,3.17
2018-06-29T11:00:12.342Z,4.57
2018-06-29T11:02:59.561Z,2.83
2018-06-29T11:05:40.260Z,4.83
2018-06-29T11:08:29.043Z,3.07
2018-06-29T11:11:13.624Z,3.00
2018-06-29T11:14:01.041Z,2.60
2018-06-29T11:16:43.708Z,2.27
2018-06-29T11:19:25.621Z,3.50
2018-06-29T11:22:02.305Z,2.40
2018-06-29T11:24:41.595Z,2.53
2018-06-29T11:27:26.625Z,1.83
2018-06-29T11:30:09.662Z,1.87
2018-06-29T11:32:53.492Z,2.03
2018-06-29T11:35:37.745Z,5.73
2018-06-29T11:38:25.839Z,2.40
2018-06-29T11:41:04.647Z,3.97
2018-06-29T11:43:46.879Z,2.50
2018-06-29T11:46:30.217Z,2.80
2018-06-29T11:49:11.791Z,5.30
2018-06-29T11:54:59.625Z,4.37
2018-06-29T11:57:40.687Z,3.87
2018-06-29T12:00:18.240Z,3.43
2018-06-29T12:03:06.291Z,5.20
2018-06-29T12:05:44.659Z,4.83
2018-06-29T12:08:26.928Z,4.20
2018-06-29T12:11:11.079Z,3.00
2018-06-29T12:13:55.339Z,8.43
2018-06-29T12:16:38.193Z,7.77
2018-06-29T12:19:22.459Z,8.87
2018-06-29T12:22:07.180Z,6.47
2018-06-29T12:24:44.753Z,9.57
2018-06-29T12:27:28.361Z,7.70
2018-06-29T12:30:09.668Z,7.67
2018-06-29T12:33:00.517Z,10.07
2018-06-29T12:35:38.132Z,6.37
2018-06-29T12:38:19.016Z,7.33
2018-06-29T12:40:59.858Z,6.63
2018-06-29T12:43:41.802Z,6.20
2018-06-29T12:46:18.492Z,5.97
2018-06-29T12:49:01.119Z,6.83
2018-06-29T12:51:42.688Z,7.23
2018-06-29T12:57:24.026Z,7.20
2018-06-29T13:00:05.838Z,8.17
2018-06-29T13:02:51.126Z,7.50
2018-06-29T13:05:36.406Z,7.10
2018-06-29T13:08:19.427Z,6.93
2018-06-29T13:10:56.495Z,8.80
2018-06-29T13:13:42.480Z,7.80
2018-06-29T13:19:20.763Z,8.47
2018-06-29T13:22:01.499Z,10.50
2018-06-29T13:24:40.412Z,7.00
2018-06-29T13:27:17.660Z,6.13
2018-06-29T13:30:01.277Z,8.57
2018-06-29T13:32:48.447Z,9.70
2018-06-29T13:35:33.550Z,9.93
2018-06-29T13:38:16.069Z,13.03
2018-06-29T13:40:59.019Z,5.30
2018-06-29T13:43:41.920Z,6.40
2018-06-29T13:46:21.117Z,7.03
2018-06-29T13:49:09.755Z,10.30
2018-06-29T13:51:57.685Z,9.50
2018-06-29T13:54:40.728Z,6.40
2018-06-29T13:57:33.331Z,5.90
2018-06-29T14:00:16.632Z,4.10
2018-06-29T14:02:54.474Z,10.23
2018-06-29T14:05:38.658Z,7.00
2018-06-29T14:08:25.911Z,4.73
2018-06-29T14:11:09.375Z,3.87
2018-06-29T14:13:59.546Z,6.73
2018-06-29T14:16:46.760Z,5.53
2018-06-29T14:19:26.618Z,7.13
2018-06-29T14:22:03.809Z,5.13
2018-06-29T14:24:41.234Z,6.80
2018-06-29T14:27:25.174Z,6.37
2018-06-29T14:30:07.399Z,8.73
2018-06-29T14:32:55.280Z,5.53
2018-06-29T14:35:41.232Z,6.70
2018-06-29T14:38:25.168Z,11.03
2018-06-29T14:41:10.371Z,8.37
2018-06-29T14:43:56.017Z,7.20
2018-06-29T14:46:39.554Z,8.37
2018-06-29T14:49:23.079Z,7.70
2018-06-29T14:52:05.072Z,7.00
2018-06-29T14:54:46.187Z,11.93
2018-06-29T14:57:35.291Z,10.93
2018-06-29T15:00:19.003Z,10.90
2018-06-29T15:03:07.767Z,9.60
2018-06-29T15:05:50.417Z,9.50
2018-06-29T15:11:19.963Z,10.30
2018-06-29T15:14:02.263Z,8.03
2018-06-29T15:16:41.087Z,9.10
2018-06-29T15:19:23.831Z,10.30
2018-06-29T15:22:02.101Z,16.67
2018-06-29T15:24:42.889Z,9.40
2018-06-29T15:27:21.708Z,15.17
2018-06-29T15:30:05.199Z,15.30
2018-06-29T15:32:50.451Z,14.53
2018-06-29T15:35:25.720Z,12.90
2018-06-29T15:37:59.511Z,14.30
2018-06-29T15:40:42.158Z,15.63
2018-06-29T15:43:27.699Z,13.43
2018-06-29T15:46:08.481Z,10.40
2018-06-29T15:48:51.827Z,13.60
2018-06-29T15:51:38.269Z,16.97
2018-06-29T15:54:16.373Z,12.40
2018-06-29T15:57:04.773Z,13.97
2018-06-29T15:59:44.124Z,18.30
2018-06-29T16:02:24.227Z,10.40
2018-06-29T16:04:55.785Z,11.50
2018-06-29T16:07:27.543Z,11.67
2018-06-29T16:10:03.118Z,16.27
2018-06-29T16:12:39.596Z,11.83
2018-06-29T16:15:12.728Z,14.77
2018-06-29T16:17:44.944Z,13.77
2018-06-29T16:23:19.684Z,12.13
2018-06-29T16:26:01.124Z,16.00
2018-06-29T16:28:44.453Z,16.97
2018-06-29T16:31:27.422Z,12.13
2018-06-29T16:34:09.696Z,11.03
2018-06-29T16:46:08.331Z,13.30
2018-06-29T16:48:52.374Z,11.47
2018-06-29T16:51:39.830Z,10.40
2018-06-29T16:54:29.368Z,11.17
2018-06-29T16:57:17.899Z,15.33
2018-06-29T17:00:02.555Z,17.27
2018-06-29T17:05:45.025Z,13.27
2018-06-29T17:08:28.960Z,10.43
2018-06-29T17:11:12.279Z,10.10
2018-06-29T17:13:59.600Z,16.03
2018-06-29T17:16:47.998Z,12.97
2018-06-29T17:19:33.336Z,11.80
2018-06-29T17:22:19.029Z,13.13
2018-06-29T17:25:01.046Z,14.10
2018-06-29T17:27:42.120Z,12.43
2018-06-29T17:33:13.033Z,12.77
2018-06-29T17:38:47.108Z,16.30
2018-06-29T17:41:35.018Z,13.10
2018-06-29T17:44:23.817Z,14.03
2018-06-29T17:47:08.068Z,15.63
2018-06-29T17:49:53.014Z,11.93
2018-06-29T17:52:36.790Z,14.20
2018-06-29T17:55:22.878Z,12.83
2018-06-29T17:58:06.276Z,16.33
2018-06-29T18:00:50.190Z,11.70
2018-06-29T18:03:38.424Z,13.70
2018-06-29T18:06:21.127Z,14.90
2018-06-29T18:11:56.893Z,11.97
2018-06-29T18:14:40.778Z,15.23
2018-06-29T18:17:24.136Z,11.47
2018-06-29T18:20:10.350Z,14.03
2018-06-29T18:22:58.002Z,17.67
2018-06-29T18:25:42.713Z,10.97
2018-06-29T18:28:25.434Z,14.67
2018-06-29T18:31:17.184Z,10.97
2018-06-29T18:34:10.454Z,10.60
2018-06-29T18:36:58.378Z,14.90
2018-06-29T18:39:42.966Z,16.00
2018-06-29T18:42:28.845Z,15.47
2018-06-29T18:45:11.874Z,13.17
2018-06-29T18:47:58.088Z,17.90
2018-06-29T18:50:49.828Z,12.87
2018-06-29T18:53:36.301Z,10.70
2018-06-29T18:56:26.038Z,12.77
2018-06-29T18:59:11.123Z,12.40
2018-06-29T19:01:57.572Z,14.13
2018-06-29T19:04:47.799Z,17.93
2018-06-29T19:07:33.228Z,11.20
2018-06-29T19:10:16.509Z,11.50
2018-06-29T19:12:58.514Z,15.00
2018-06-29T19:15:44.362Z,18.73
2018-06-29T19:18:32.273Z,14.83
2018-06-29T19:21:17.672Z,11.37
2018-06-29T19:24:03.288Z,13.37
2018-06-29T19:26:55.758Z,14.87
2018-06-29T19:29:32.608Z,15.47
2018-06-29T19:32:10.753Z,12.70
2018-06-29T19:34:57.735Z,12.90
2018-06-29T19:37:44.450Z,15.87
2018-06-29T19:40:32.423Z,14.43
2018-06-29T19:43:17.713Z,15.83
2018-06-29T19:46:01.370Z,16.53
2018-06-29T19:48:51.288Z,12.83
2018-06-29T19:51:35.842Z,16.87
2018-06-29T19:54:24.532Z,15.33
2018-06-29T19:57:10.967Z,14.50
2018-06-29T19:59:53.743Z,13.80
2018-06-29T20:02:41.997Z,18.97
2018-06-29T20:05:26.393Z,12.90
2018-06-29T20:08:15.239Z,14.87
2018-06-29T20:10:56.492Z,15.97
2018-06-29T20:13:43.971Z,18.63
2018-06-29T20:16:29.954Z,13.77
2018-06-29T20:19:17.043Z,13.27
2018-06-29T20:21:59.917Z,15.47
2018-06-29T20:24:40.494Z,14.87
2018-06-29T20:30:15.848Z,17.97
2018-06-29T20:32:55.164Z,14.50
2018-06-29T20:35:32.129Z,15.80
2018-06-29T20:38:13.011Z,17.43
2018-06-29T20:40:54.976Z,18.17
2018-06-29T20:43:28.911Z,19.90
2018-06-29T20:46:03.596Z,17.77
2018-06-29T20:51:38.887Z,18.33
2018-06-29T20:54:18.677Z,20.47
2018-06-29T20:57:05.329Z,17.60
2018-06-29T20:59:37.422Z,17.43
2018-06-29T21:02:11.191Z,18.47
2018-06-29T21:04:53.672Z,14.47
2018-06-29T21:07:40.432Z,15.00
2018-06-29T21:10:31.636Z,21.23
2018-06-29T21:13:20.013Z,17.27
2018-06-29T21:16:01.933Z,18.67
2018-06-29T21:18:55.262Z,23.50
2018-06-29T21:21:43.265Z,20.47
2018-06-29T21:24:34.608Z,17.77
2018-06-29T21:27:22.510Z,22.90
2018-06-29T21:30:06.180Z,19.33
2018-06-29T21:32:55.312Z,18.30
2018-06-29T21:35:40.014Z,20.60
2018-06-29T21:38:27.256Z,21.07
2018-06-29T21:41:10.271Z,24.57
2018-06-29T21:43:58.735Z,24.47
2018-06-29T21:46:45.051Z,19.30
2018-06-29T21:49:27.853Z,26.13
2018-06-29T21:52:16.133Z,18.63
2018-06-29T21:55:01.338Z,18.00
2018-06-29T21:57:45.540Z,18.30
2018-06-29T22:00:32.616Z,18.63
2018-06-29T22:03:22.195Z,18.93
2018-06-29T22:06:09.200Z,25.43
2018-06-29T22:08:52.227Z,22.50
2018-06-29T22:11:39.417Z,24.50
2018-06-29T22:14:24.114Z,24.43
2018-06-29T22:17:07.259Z,25.80
2018-06-29T22:19:53.648Z,25.23
2018-06-29T22:22:37.144Z,17.23
2018-06-29T22:25:22.659Z,25.87
2018-06-29T22:28:11.399Z,23.00
2018-06-29T22:30:58.134Z,25.00
2018-06-29T22:33:46.926Z,18.53
2018-06-29T22:36:32.567Z,18.43
2018-06-29T22:39:20.355Z,22.47
2018-06-29T22:42:09.660Z,23.23
2018-06-29T22:44:54.107Z,22.53
2018-06-29T22:47:41.544Z,27.73
2018-06-29T22:50:28.434Z,20.60
2018-06-29T22:53:12.131Z,25.27
2018-06-29T22:55:55.565Z,26.50
2018-06-29T22:58:38.822Z,23.07
2018-06-29T23:01:22.235Z,20.90
2018-06-29T23:04:08.219Z,26.20
2018-06-29T23:06:46.147Z,23.13
2018-06-29T23:09:27.598Z,25.87
2018-06-29T23:15:14.075Z,26.57
2018-06-29T23:18:00.627Z,21.97
2018-06-29T23:20:48.368Z,21.93
2018-06-29T23:23:36.021Z,26.20
2018-06-29T23:26:19.279Z,21.63
2018-06-29T23:29:05.055Z,28.03
2018-06-29T23:31:50.224Z,25.33
2018-06-29T23:34:30.628Z,23.20
2018-06-29T23:37:21.999Z,22.87
2018-06-29T23:40:10.713Z,22.47
2018-06-29T23:42:50.442Z,23.83
2018-06-29T23:45:37.257Z,18.63
2018-06-29T23:48:22.896Z,24.70
2018-06-29T23:51:09.755Z,29.27
2018-06-29T23:56:51.111Z,21.57
2018-06-29T23:59:30.283Z,23.77
